Terminal Aerodrome Forecast
Issued by NWS

Home | Current Version | Previous Version | Text Only | Print | Product List | Glossary On
Versions: 1 2 3 4 5 6 7 8 9 10 11 12
000
FTAK31 PAJN 301100
TAFAKT
TAF
PAKT 301120Z 3012/0112 32009KT P6SM SCT025 BKN040
      TEMPO 3014/3017 6SM BR BKN015
     FM302000 34011KT P6SM SCT050 SCT100
     FM010300 33005KT P6SM SCT100
      AMD LTD TO CLD VIS AND WIND 3012/3015=

USA.gov is the U.S. government's official web portal to all federal, state and local government web resources and services.